createdAt,value
2023-02-12T00:01:21.114Z,96368.31
2023-02-12T00:03:47.958Z,96388.41
2023-02-12T00:06:16.134Z,96391.94
2023-02-12T00:08:43.639Z,96373.84
2023-02-12T00:11:17.994Z,96360.13
2023-02-12T00:13:45.051Z,96376.81
2023-02-12T00:16:15.704Z,96385.63
2023-02-12T00:18:43.281Z,96383.38
2023-02-12T00:21:10.745Z,96378.34
2023-02-12T00:23:39.349Z,96369.94
2023-02-12T00:26:12.074Z,96374.00
2023-02-12T00:28:39.026Z,96346.25
2023-02-12T00:31:16.243Z,96365.59
2023-02-12T00:33:43.285Z,96376.25
2023-02-12T00:36:20.326Z,96367.00
2023-02-12T00:38:47.639Z,96374.34
2023-02-12T00:41:14.572Z,96377.84
2023-02-12T00:43:41.882Z,96376.25
2023-02-12T00:46:09.186Z,96380.38
2023-02-12T00:48:36.876Z,96369.38
2023-02-12T00:51:05.546Z,96392.34
2023-02-12T00:53:33.045Z,96378.84
2023-02-12T00:56:00.665Z,96373.66
2023-02-12T00:58:28.137Z,96387.94
2023-02-12T01:00:55.107Z,96386.34
2023-02-12T01:03:22.387Z,96403.88
2023-02-12T01:05:49.186Z,96374.97
2023-02-12T01:08:17.217Z,96383.53
2023-02-12T01:10:44.863Z,96395.16
2023-02-12T01:13:15.792Z,96389.19
2023-02-12T01:15:43.044Z,96374.06
2023-02-12T01:18:10.159Z,96394.31
2023-02-12T01:20:37.018Z,96356.97
2023-02-12T01:23:06.993Z,96381.34
2023-02-12T01:25:33.811Z,96378.88
2023-02-12T01:28:00.569Z,96381.81
2023-02-12T01:30:27.362Z,96390.38
2023-02-12T01:32:55.644Z,96377.06
2023-02-12T01:35:22.470Z,96389.91
2023-02-12T01:37:49.205Z,96387.44
2023-02-12T01:40:18.674Z,96385.63
2023-02-12T01:42:45.426Z,96384.72
2023-02-12T01:45:14.674Z,96388.84
2023-02-12T01:47:45.193Z,96383.22
2023-02-12T01:50:18.080Z,96375.94
2023-02-12T01:52:48.950Z,96371.75
2023-02-12T01:55:16.073Z,96375.03
2023-02-12T01:57:46.091Z,96391.78
2023-02-12T02:00:21.424Z,96371.16
2023-02-12T02:02:58.663Z,96372.69
2023-02-12T02:05:41.408Z,96370.19
2023-02-12T02:08:09.335Z,96370.09
2023-02-12T02:10:36.117Z,96369.91
2023-02-12T02:13:22.192Z,96374.78
2023-02-12T02:15:56.414Z,96369.19
2023-02-12T02:18:35.595Z,96372.41
2023-02-12T02:21:42.792Z,96373.09
2023-02-12T02:24:38.278Z,96376.25
2023-02-12T02:27:17.339Z,96373.66
2023-02-12T02:30:24.792Z,96362.22
2023-02-12T02:33:10.472Z,96359.38
2023-02-12T02:36:54.101Z,96361.44
2023-02-12T02:39:38.810Z,96359.75
2023-02-12T02:42:17.664Z,96337.31
2023-02-12T02:44:54.374Z,96340.06
2023-02-12T02:47:45.107Z,96327.97
2023-02-12T02:50:23.110Z,96337.31
2023-02-12T02:53:03.873Z,96340.06
2023-02-12T02:55:40.454Z,96333.03
2023-02-12T02:58:15.433Z,96339.69
2023-02-12T03:01:31.617Z,96334.63
2023-02-12T03:04:06.885Z,96342.66
2023-02-12T03:06:45.867Z,96320.50
2023-02-12T03:09:23.874Z,96339.00
2023-02-12T03:11:51.791Z,96340.81
2023-02-12T03:14:25.808Z,96329.53
2023-02-12T03:17:01.040Z,96326.94
2023-02-12T03:19:34.682Z,96337.84
2023-02-12T03:22:26.768Z,96332.81
2023-02-12T03:25:31.359Z,96344.81
2023-02-12T03:28:11.793Z,96340.81
2023-02-12T03:31:21.932Z,96352.75
2023-02-12T03:34:28.634Z,96354.25
2023-02-12T03:37:29.910Z,96357.03
2023-02-12T03:39:59.416Z,96342.78
2023-02-12T03:42:41.587Z,96361.59
2023-02-12T03:45:49.382Z,96369.84
2023-02-12T03:48:32.078Z,96366.41
2023-02-12T03:51:05.818Z,96356.16
2023-02-12T03:53:32.846Z,96354.56
2023-02-12T03:56:27.524Z,96378.56
2023-02-12T03:58:54.260Z,96370.31
2023-02-12T04:01:21.320Z,96363.94
2023-02-12T04:03:48.682Z,96358.69
2023-02-12T04:06:27.540Z,96364.66
2023-02-12T04:08:57.929Z,96353.66
2023-02-12T04:11:45.803Z,96362.97
2023-02-12T04:14:42.318Z,96361.00
2023-02-12T04:17:21.458Z,96377.50
2023-02-12T04:20:27.843Z,96367.25
2023-02-12T04:23:50.224Z,96383.59
2023-02-12T04:26:33.661Z,96378.31
2023-02-12T04:29:22.933Z,96375.50
2023-02-12T04:32:19.677Z,96377.34
2023-02-12T04:35:03.215Z,96366.34
2023-02-12T04:37:45.545Z,96360.69
2023-02-12T04:40:16.201Z,96379.16
2023-02-12T04:42:49.079Z,96369.84
2023-02-12T04:45:22.076Z,96378.97
2023-02-12T04:47:48.840Z,96376.50
2023-02-12T04:50:15.814Z,96358.94
2023-02-12T04:52:42.581Z,96385.81
2023-02-12T04:55:09.552Z,96391.72
2023-02-12T04:57:36.523Z,96407.06
2023-02-12T05:00:08.466Z,96394.38
2023-02-12T05:02:35.475Z,96364.81
2023-02-12T05:05:02.375Z,96371.84
2023-02-12T05:07:29.179Z,96375.03
2023-02-12T05:09:56.123Z,96373.38
2023-02-12T05:12:22.920Z,96370.59
2023-02-12T05:14:49.633Z,96351.84
2023-02-12T05:17:16.411Z,96371.25
2023-02-12T05:19:43.169Z,96372.91
2023-02-12T05:22:09.926Z,96352.59
2023-02-12T05:24:37.508Z,96342.69
2023-02-12T05:27:04.226Z,96370.63
2023-02-12T05:29:30.966Z,96365.34
2023-02-12T05:31:57.850Z,96371.69
2023-02-12T05:34:24.668Z,96364.91
2023-02-12T05:36:51.443Z,96365.88
2023-02-12T05:39:18.322Z,96361.56
2023-02-12T05:41:45.048Z,96370.00
2023-02-12T05:44:12.195Z,96344.06
2023-02-12T05:46:39.578Z,96376.81
2023-02-12T05:49:06.407Z,96358.03
2023-02-12T05:51:33.379Z,96349.53
2023-02-12T05:54:03.917Z,96346.09
2023-02-12T05:56:39.447Z,96372.47
2023-02-12T05:59:12.834Z,96368.28
2023-02-12T06:01:42.622Z,96374.88
2023-02-12T06:04:17.200Z,96368.81
2023-02-12T06:06:44.769Z,96368.81
2023-02-12T06:09:13.520Z,96375.66
2023-02-12T06:11:40.501Z,96374.38
2023-02-12T06:14:11.466Z,96344.66
2023-02-12T06:16:38.411Z,96363.22
2023-02-12T06:19:06.592Z,96371.47
2023-02-12T06:21:34.051Z,96346.19
2023-02-12T06:24:01.289Z,96350.59
2023-02-12T06:26:28.290Z,96357.88
2023-02-12T06:28:55.439Z,96362.91
2023-02-12T06:31:32.548Z,96374.63
2023-02-12T06:34:06.480Z,96367.97
2023-02-12T06:36:34.235Z,96362.06
2023-02-12T06:39:03.071Z,96369.09
2023-02-12T06:41:29.912Z,96372.47
2023-02-12T06:43:56.671Z,96361.63
2023-02-12T06:46:23.934Z,96386.84
2023-02-12T06:48:56.956Z,96375.00
2023-02-12T06:51:24.726Z,96397.00
2023-02-12T06:53:53.964Z,96378.34
2023-02-12T06:56:22.896Z,96394.16
2023-02-12T06:58:56.653Z,96394.91
2023-02-12T07:01:28.031Z,96400.88
2023-02-12T07:03:58.141Z,96416.47
2023-02-12T07:06:26.749Z,96401.56
2023-02-12T07:08:55.796Z,96394.16
2023-02-12T07:11:29.048Z,96407.47
2023-02-12T07:13:55.944Z,96400.56
2023-02-12T07:16:23.234Z,96408.81
2023-02-12T07:18:50.216Z,96394.31
2023-02-12T07:21:18.446Z,96401.50
2023-02-12T07:23:53.912Z,96418.75
2023-02-12T07:26:22.351Z,96397.53
2023-02-12T07:28:50.760Z,96420.69
2023-02-12T07:31:21.882Z,96400.72
2023-02-12T07:33:49.320Z,96399.19
2023-02-12T07:36:19.104Z,96412.88
2023-02-12T07:38:46.335Z,96401.47
2023-02-12T07:41:23.638Z,96402.06
2023-02-12T07:43:56.439Z,96402.84
2023-02-12T07:46:36.936Z,96388.56
2023-02-12T07:49:06.407Z,96402.19
2023-02-12T07:51:35.139Z,96391.28
2023-02-12T07:54:02.833Z,96405.50
2023-02-12T07:56:35.312Z,96395.19
2023-02-12T07:59:08.794Z,96404.09
2023-02-12T08:01:51.293Z,96410.47
2023-02-12T08:04:22.474Z,96410.31
2023-02-12T08:06:51.961Z,96406.97
2023-02-12T08:09:24.938Z,96413.84
2023-02-12T08:11:52.274Z,96411.16
2023-02-12T08:14:21.355Z,96418.56
2023-02-12T08:16:50.092Z,96412.00
2023-02-12T08:19:21.121Z,96412.59
2023-02-12T08:21:53.367Z,96391.09
2023-02-12T08:24:22.274Z,96409.47
2023-02-12T08:26:49.438Z,96405.13
2023-02-12T08:29:20.444Z,96394.25
2023-02-12T08:31:50.026Z,96382.75
2023-02-12T08:34:23.924Z,96376.56
2023-02-12T08:36:54.160Z,96403.00
2023-02-12T08:39:22.476Z,96402.66
2023-02-12T08:41:50.185Z,96396.34
2023-02-12T08:44:17.408Z,96387.75
2023-02-12T08:46:47.463Z,96397.84
2023-02-12T08:49:24.377Z,96398.44
2023-02-12T08:51:54.382Z,96400.72
2023-02-12T08:54:30.750Z,96395.63
2023-02-12T08:57:00.339Z,96394.34
2023-02-12T08:59:27.433Z,96388.03
2023-02-12T09:01:55.208Z,96407.63
2023-02-12T09:04:28.408Z,96401.31
2023-02-12T09:06:56.201Z,96390.88
2023-02-12T09:09:23.554Z,96385.47
2023-02-12T09:11:50.441Z,96398.88
2023-02-12T09:14:23.771Z,96395.38
2023-02-12T09:16:53.250Z,96395.84
2023-02-12T09:19:20.125Z,96394.81
2023-02-12T09:21:56.011Z,96404.03
2023-02-12T09:24:28.280Z,96394.44
2023-02-12T09:26:55.545Z,96397.03
2023-02-12T09:29:22.516Z,96399.94
2023-02-12T09:31:49.429Z,96375.81
2023-02-12T09:34:16.282Z,96360.91
2023-02-12T09:36:42.995Z,96372.81
2023-02-12T09:39:09.742Z,96382.25
2023-02-12T09:42:08.854Z,96389.06
2023-02-12T09:44:41.712Z,96395.03
2023-02-12T09:47:20.517Z,96391.88
2023-02-12T09:50:15.542Z,96389.06
2023-02-12T09:52:42.449Z,96390.91
2023-02-12T09:55:15.851Z,96403.09
2023-02-12T09:57:43.406Z,96395.34
2023-02-12T10:00:31.291Z,96392.72
2023-02-12T10:03:05.453Z,96397.94
2023-02-12T10:05:38.399Z,96392.72
2023-02-12T10:08:11.034Z,96389.69
2023-02-12T10:14:47.142Z,96391.25
2023-02-12T10:17:55.928Z,96383.88
2023-02-12T10:20:59.036Z,96380.84
2023-02-12T10:24:03.875Z,96392.84
2023-02-12T10:26:38.923Z,96394.47
2023-02-12T10:29:22.344Z,96383.00
2023-02-12T10:31:54.517Z,96398.75
2023-02-12T10:34:26.203Z,96396.06
2023-02-12T10:37:17.759Z,96394.09
2023-02-12T10:39:54.733Z,96396.34
2023-02-12T10:42:43.880Z,96384.22
2023-02-12T10:45:26.796Z,96388.03
2023-02-12T10:48:09.348Z,96379.66
2023-02-12T10:51:06.990Z,96380.88
2023-02-12T10:53:42.963Z,96381.16
2023-02-12T10:56:17.394Z,96384.50
2023-02-12T10:58:49.738Z,96375.06
2023-02-12T11:01:39.194Z,96366.78
2023-02-12T11:04:32.533Z,96378.66
2023-02-12T11:07:06.938Z,96375.09
2023-02-12T11:09:45.426Z,96376.03
2023-02-12T11:12:35.961Z,96362.50
2023-02-12T11:15:18.445Z,96367.84
2023-02-12T11:18:04.439Z,96372.38
2023-02-12T11:20:50.354Z,96365.31
2023-02-12T11:23:42.443Z,96358.13
2023-02-12T11:26:18.000Z,96360.53
2023-02-12T11:29:24.622Z,96343.31
2023-02-12T11:32:10.119Z,96351.22
2023-02-12T11:34:37.313Z,96346.91
2023-02-12T11:37:05.272Z,96334.88
2023-02-12T11:39:39.108Z,96317.97
2023-02-12T11:42:18.921Z,96334.31
2023-02-12T11:44:55.890Z,96326.38
2023-02-12T11:47:35.577Z,96306.63
2023-02-12T11:50:27.600Z,96317.28
2023-02-12T11:53:00.472Z,96312.56
2023-02-12T11:55:33.155Z,96319.06
2023-02-12T11:58:25.580Z,96320.31
2023-02-12T12:01:06.381Z,96319.47
2023-02-12T12:03:41.192Z,96330.78
2023-02-12T12:06:14.790Z,96327.88
2023-02-12T12:09:10.068Z,96322.13
2023-02-12T12:11:57.498Z,96324.41
2023-02-12T12:14:30.515Z,96309.22
2023-02-12T12:17:22.953Z,96312.81
2023-02-12T12:20:05.119Z,96318.25
2023-02-12T12:22:54.754Z,96306.13
2023-02-12T12:25:35.398Z,96306.22
2023-02-12T12:28:50.086Z,96311.84
2023-02-12T12:31:38.121Z,96286.44
2023-02-12T12:34:20.199Z,96302.72
2023-02-12T12:37:26.100Z,96290.53
2023-02-12T12:40:14.783Z,96295.44
2023-02-12T12:43:00.358Z,96295.97
2023-02-12T12:45:47.975Z,96293.16
2023-02-12T12:48:32.833Z,96292.22
2023-02-12T12:51:30.813Z,96295.06
2023-02-12T12:54:39.525Z,96287.53
2023-02-12T12:57:17.043Z,96271.84
2023-02-12T13:00:35.418Z,96283.19
2023-02-12T13:03:06.774Z,96288.47
2023-02-12T13:06:11.949Z,96283.41
2023-02-12T13:09:09.161Z,96266.84
2023-02-12T13:12:23.644Z,96279.16
2023-02-12T13:15:58.635Z,96267.31
2023-02-12T13:18:43.259Z,96262.44
2023-02-12T13:21:24.430Z,96267.56
2023-02-12T13:24:21.972Z,96278.28
2023-02-12T13:27:02.741Z,96265.75
2023-02-12T13:29:42.151Z,96271.97
2023-02-12T13:32:29.971Z,96275.88
2023-02-12T13:34:58.135Z,96269.09
2023-02-12T13:37:49.024Z,96266.94
2023-02-12T13:40:20.171Z,96255.75
2023-02-12T13:43:13.137Z,96272.53
2023-02-12T13:46:08.469Z,96270.84
2023-02-12T13:49:21.731Z,96270.47
2023-02-12T13:52:28.117Z,96248.88
2023-02-12T13:55:26.797Z,96265.53
2023-02-12T13:58:34.951Z,96262.16
2023-02-12T14:01:01.735Z,96257.66
2023-02-12T14:03:31.501Z,96251.97
2023-02-12T14:06:21.559Z,96246.34
2023-02-12T14:09:07.522Z,96252.31
2023-02-12T14:11:34.650Z,96226.09
2023-02-12T14:14:06.593Z,96238.28
2023-02-12T14:16:33.256Z,96251.38
2023-02-12T14:19:37.913Z,96254.19
2023-02-12T14:22:26.409Z,96253.38
2023-02-12T14:24:55.324Z,96237.16
2023-02-12T14:27:42.020Z,96243.28
2023-02-12T14:30:12.007Z,96245.06
2023-02-12T14:32:50.892Z,96249.84
2023-02-12T14:35:29.068Z,96242.81
2023-02-12T14:38:05.572Z,96242.00
2023-02-12T14:40:35.335Z,96247.91
2023-02-12T14:43:24.429Z,96250.16
2023-02-12T14:45:51.220Z,96230.47
2023-02-12T14:48:53.679Z,96242.19
2023-02-12T14:51:45.198Z,96254.03
2023-02-12T14:54:22.042Z,96213.88
2023-02-12T14:56:50.928Z,96202.13
2023-02-12T14:59:24.697Z,96233.38
2023-02-12T15:01:52.730Z,96244.09
2023-02-12T15:04:33.404Z,96237.69
2023-02-12T15:07:17.220Z,96248.03
2023-02-12T15:09:53.141Z,96255.44
2023-02-12T15:12:32.988Z,96249.53
2023-02-12T15:15:15.942Z,96247.56
2023-02-12T15:17:58.514Z,96241.28
2023-02-12T15:20:35.507Z,96250.81
2023-02-12T15:23:03.216Z,96243.44
2023-02-12T15:25:32.510Z,96247.47
2023-02-12T15:28:17.002Z,96238.16
2023-02-12T15:30:43.996Z,96225.47
2023-02-12T15:33:35.736Z,96254.75
2023-02-12T15:36:04.616Z,96255.00
2023-02-12T15:38:37.934Z,96238.28
2023-02-12T15:41:06.770Z,96228.28
2023-02-12T15:43:40.057Z,96251.72
2023-02-12T15:46:17.108Z,96248.63
2023-02-12T15:48:45.119Z,96210.03
2023-02-12T15:51:20.615Z,96226.06
2023-02-12T15:53:47.993Z,96236.78
2023-02-12T15:56:26.217Z,96224.75
2023-02-12T15:58:58.561Z,96247.09
2023-02-12T16:01:32.478Z,96250.50
2023-02-12T16:04:07.341Z,96237.63
2023-02-12T16:06:39.326Z,96248.69
2023-02-12T16:09:19.835Z,96223.47
2023-02-12T16:11:48.206Z,96233.34
2023-02-12T16:14:35.028Z,96243.47
2023-02-12T16:17:01.894Z,96238.94
2023-02-12T16:19:37.308Z,96239.50
2023-02-12T16:22:16.874Z,96238.66
2023-02-12T16:24:52.961Z,96233.84
2023-02-12T16:27:32.240Z,96257.53
2023-02-12T16:30:38.917Z,96252.03
2023-02-12T16:33:32.548Z,96242.78
2023-02-12T16:36:13.827Z,96249.69
2023-02-12T16:38:52.588Z,96247.41
2023-02-12T16:41:19.934Z,96253.38
2023-02-12T16:44:16.812Z,96258.91
2023-02-12T16:46:54.961Z,96263.44
2023-02-12T16:49:25.022Z,96267.59
2023-02-12T16:51:52.859Z,96271.66
2023-02-12T16:54:35.112Z,96263.66
2023-02-12T16:57:02.492Z,96274.75
2023-02-12T16:59:30.019Z,96271.38
2023-02-12T17:02:11.489Z,96267.69
2023-02-12T17:04:38.395Z,96269.19
2023-02-12T17:07:18.345Z,96285.78
2023-02-12T17:09:45.103Z,96292.66
2023-02-12T17:12:11.904Z,96294.66
2023-02-12T17:14:38.658Z,96275.50
2023-02-12T17:17:05.525Z,96266.47
2023-02-12T17:19:32.293Z,96282.13
2023-02-12T17:21:59.191Z,96278.09
2023-02-12T17:24:30.304Z,96279.34
2023-02-12T17:26:57.725Z,96291.81
2023-02-12T17:29:25.539Z,96273.94
2023-02-12T17:31:56.344Z,96281.38
2023-02-12T17:34:23.870Z,96283.91
2023-02-12T17:36:50.940Z,96284.66
2023-02-12T17:39:20.913Z,96291.66
2023-02-12T17:41:48.259Z,96283.81
2023-02-12T17:44:15.715Z,96291.09
2023-02-12T17:46:43.225Z,96303.09
2023-02-12T17:49:10.364Z,96293.13
2023-02-12T17:51:37.852Z,96303.75
2023-02-12T17:54:05.376Z,96296.53
2023-02-12T17:56:32.519Z,96273.06
2023-02-12T17:58:59.988Z,96300.56
2023-02-12T18:01:27.249Z,96290.88
2023-02-12T18:03:55.952Z,96297.75
2023-02-12T18:06:26.852Z,96313.28
2023-02-12T18:08:54.029Z,96300.16
2023-02-12T18:11:21.347Z,96301.06
2023-02-12T18:13:52.350Z,96316.47
2023-02-12T18:16:19.644Z,96314.78
2023-02-12T18:18:46.428Z,96303.38
2023-02-12T18:21:15.904Z,96315.78
2023-02-12T18:23:43.702Z,96321.84
2023-02-12T18:26:14.565Z,96324.34
2023-02-12T18:28:41.470Z,96296.88
2023-02-12T18:31:09.414Z,96308.13
2023-02-12T18:33:37.648Z,96302.72
2023-02-12T18:36:11.887Z,96297.31
2023-02-12T18:38:40.925Z,96316.84
2023-02-12T18:41:15.283Z,96310.72
2023-02-12T18:43:43.932Z,96312.50
2023-02-12T18:46:14.928Z,96311.91
2023-02-12T18:48:42.762Z,96298.41
2023-02-12T18:51:14.590Z,96312.19
2023-02-12T18:53:41.609Z,96281.22
2023-02-12T18:56:11.170Z,96314.03
2023-02-12T18:58:38.078Z,96299.13
2023-02-12T19:01:20.431Z,96304.81
2023-02-12T19:03:49.557Z,96310.00
2023-02-12T19:06:16.581Z,96280.19
2023-02-12T19:08:43.475Z,96295.19
2023-02-12T19:11:12.641Z,96292.72
2023-02-12T19:13:40.852Z,96299.44
2023-02-12T19:16:15.878Z,96277.56
2023-02-12T19:18:43.180Z,96298.53
2023-02-12T19:21:13.397Z,96285.94
2023-02-12T19:23:40.381Z,96265.81
2023-02-12T19:26:10.422Z,96291.06
2023-02-12T19:28:38.624Z,96298.47
2023-02-12T19:31:36.793Z,96302.19
2023-02-12T19:34:07.676Z,96285.88
2023-02-12T19:36:37.150Z,96306.22
2023-02-12T19:39:06.114Z,96294.53
2023-02-12T19:41:40.917Z,96316.63
2023-02-12T19:44:19.923Z,96308.22
2023-02-12T19:46:48.697Z,96309.06
2023-02-12T19:49:22.701Z,96281.81
2023-02-12T19:51:49.956Z,96317.47
2023-02-12T19:54:19.258Z,96314.78
2023-02-12T19:56:46.435Z,96320.81
2023-02-12T19:59:17.494Z,96315.78
2023-02-12T20:01:45.398Z,96318.31
2023-02-12T20:04:14.146Z,96313.78
2023-02-12T20:06:41.868Z,96315.19
2023-02-12T20:09:10.898Z,96310.97
2023-02-12T20:11:38.649Z,96289.59
2023-02-12T20:14:11.791Z,96311.22
2023-02-12T20:16:41.736Z,96295.44
2023-02-12T20:19:23.262Z,96314.22
2023-02-12T20:21:54.373Z,96315.22
2023-02-12T20:24:27.090Z,96313.53
2023-02-12T20:26:54.810Z,96313.34
2023-02-12T20:29:22.617Z,96302.78
2023-02-12T20:31:49.917Z,96296.13
2023-02-12T20:34:18.588Z,96311.16
2023-02-12T20:36:47.157Z,96312.41
2023-02-12T20:39:17.732Z,96319.44
2023-02-12T20:41:44.523Z,96307.91
2023-02-12T20:44:20.085Z,96318.97
2023-02-12T20:46:50.106Z,96320.16
2023-02-12T20:49:20.295Z,96318.69
2023-02-12T20:51:50.361Z,96310.66
2023-02-12T20:54:17.392Z,96310.91
2023-02-12T20:56:44.289Z,96290.13
2023-02-12T20:59:11.435Z,96316.47
2023-02-12T21:01:41.280Z,96323.38
2023-02-12T21:04:14.985Z,96318.31
2023-02-12T21:06:42.399Z,96316.78
2023-02-12T21:09:14.342Z,96294.41
2023-02-12T21:11:45.315Z,96313.56
2023-02-12T21:14:23.597Z,96300.00
2023-02-12T21:16:53.748Z,96303.25
2023-02-12T21:19:21.729Z,96307.44
2023-02-12T21:21:48.579Z,96310.13
2023-02-12T21:24:20.364Z,96315.59
2023-02-12T21:26:47.679Z,96298.03
2023-02-12T21:29:15.353Z,96316.19
2023-02-12T21:31:47.582Z,96315.59
2023-02-12T21:34:23.403Z,96318.47
2023-02-12T21:36:53.683Z,96317.09
2023-02-12T21:39:26.486Z,96320.44
2023-02-12T21:41:56.535Z,96314.84
2023-02-12T21:44:25.546Z,96310.00
2023-02-12T21:46:53.090Z,96323.53
2023-02-12T21:49:25.172Z,96329.09
2023-02-12T21:51:58.757Z,96338.41
2023-02-12T21:54:26.270Z,96330.81
2023-02-12T21:56:53.304Z,96327.69
2023-02-12T21:59:20.253Z,96308.28
2023-02-12T22:01:53.045Z,96333.63
2023-02-12T22:04:20.347Z,96332.03
2023-02-12T22:06:50.309Z,96331.53
2023-02-12T22:09:19.914Z,96338.47
2023-02-12T22:11:46.979Z,96314.16
2023-02-12T22:14:17.152Z,96337.13
2023-02-12T22:16:44.873Z,96310.38
2023-02-12T22:19:11.682Z,96288.66
2023-02-12T22:21:41.193Z,96343.44
2023-02-12T22:24:16.067Z,96341.78
2023-02-12T22:26:44.340Z,96300.00
2023-02-12T22:29:14.713Z,96342.16
2023-02-12T22:31:44.146Z,96339.84
2023-02-12T22:34:14.795Z,96334.72
2023-02-12T22:36:42.985Z,96330.88
2023-02-12T22:39:13.109Z,96321.75
2023-02-12T22:41:41.996Z,96329.44
2023-02-12T22:44:11.661Z,96334.44
2023-02-12T22:46:38.610Z,96324.34
2023-02-12T22:49:05.665Z,96335.59
2023-02-12T22:51:34.599Z,96304.41
2023-02-12T22:54:01.374Z,96333.13
2023-02-12T22:56:28.438Z,96327.56
2023-02-12T22:59:01.571Z,96323.91
2023-02-12T23:01:29.793Z,96320.81
2023-02-12T23:03:57.073Z,96316.06
2023-02-12T23:06:27.745Z,96332.94
2023-02-12T23:09:02.485Z,96312.19
2023-02-12T23:11:32.507Z,96318.03
2023-02-12T23:14:00.677Z,96320.63
2023-02-12T23:16:27.783Z,96345.28
2023-02-12T23:19:00.000Z,96339.25
2023-02-12T23:21:29.650Z,96347.09
2023-02-12T23:23:59.173Z,96310.78
2023-02-12T23:26:27.802Z,96353.25
2023-02-12T23:28:55.985Z,96336.53
2023-02-12T23:31:23.626Z,96353.47
2023-02-12T23:33:50.586Z,96321.53
2023-02-12T23:36:17.409Z,96331.34
2023-02-12T23:38:44.182Z,96334.66
2023-02-12T23:41:11.015Z,96338.09
2023-02-12T23:43:37.776Z,96329.91
2023-02-12T23:46:04.765Z,96336.47
2023-02-12T23:48:31.576Z,96341.72
2023-02-12T23:50:58.599Z,96337.63
2023-02-12T23:53:25.657Z,96328.88
2023-02-12T23:55:52.381Z,96323.59
2023-02-12T23:58:19.341Z,96302.78
